sensor_id;sensor_type;location;lat;lon;timestamp;P1;durP1;ratioP1;P2;durP2;ratioP2
22030;SDS011;11179;52.106;21.024;2024-02-16T00:02:05;37.33;;;14.87;;
22030;SDS011;11179;52.106;21.024;2024-02-16T00:04:31;28.77;;;14.50;;
22030;SDS011;11179;52.106;21.024;2024-02-16T00:06:56;33.60;;;13.97;;
22030;SDS011;11179;52.106;21.024;2024-02-16T00:09:21;28.40;;;14.57;;
22030;SDS011;11179;52.106;21.024;2024-02-16T00:11:47;28.60;;;13.67;;
22030;SDS011;11179;52.106;21.024;2024-02-16T00:14:15;27.67;;;13.93;;
22030;SDS011;11179;52.106;21.024;2024-02-16T00:16:41;32.87;;;13.10;;
22030;SDS011;11179;52.106;21.024;2024-02-16T00:19:06;29.13;;;13.57;;
22030;SDS011;11179;52.106;21.024;2024-02-16T00:21:31;28.20;;;13.47;;
22030;SDS011;11179;52.106;21.024;2024-02-16T00:23:57;29.43;;;13.20;;
22030;SDS011;11179;52.106;21.024;2024-02-16T00:26:22;30.87;;;13.13;;
22030;SDS011;11179;52.106;21.024;2024-02-16T00:28:48;24.57;;;12.40;;
22030;SDS011;11179;52.106;21.024;2024-02-16T00:31:13;29.77;;;13.73;;
22030;SDS011;11179;52.106;21.024;2024-02-16T00:33:39;29.43;;;12.70;;
22030;SDS011;11179;52.106;21.024;2024-02-16T00:36:04;28.57;;;12.40;;
22030;SDS011;11179;52.106;21.024;2024-02-16T00:38:30;24.97;;;11.57;;
22030;SDS011;11179;52.106;21.024;2024-02-16T00:40:55;20.53;;;10.00;;
22030;SDS011;11179;52.106;21.024;2024-02-16T00:43:20;27.70;;;12.03;;
22030;SDS011;11179;52.106;21.024;2024-02-16T00:45:46;25.83;;;11.33;;
22030;SDS011;11179;52.106;21.024;2024-02-16T00:48:13;28.70;;;12.40;;
22030;SDS011;11179;52.106;21.024;2024-02-16T00:50:38;26.80;;;11.23;;
22030;SDS011;11179;52.106;21.024;2024-02-16T00:53:04;26.80;;;11.17;;
22030;SDS011;11179;52.106;21.024;2024-02-16T00:55:31;26.97;;;11.77;;
22030;SDS011;11179;52.106;21.024;2024-02-16T00:57:56;28.33;;;12.50;;
22030;SDS011;11179;52.106;21.024;2024-02-16T01:00:21;22.53;;;11.13;;
22030;SDS011;11179;52.106;21.024;2024-02-16T01:02:48;22.90;;;10.90;;
22030;SDS011;11179;52.106;21.024;2024-02-16T01:05:14;18.17;;;9.83;;
22030;SDS011;11179;52.106;21.024;2024-02-16T01:07:42;25.17;;;10.70;;
22030;SDS011;11179;52.106;21.024;2024-02-16T01:10:08;25.03;;;11.77;;
22030;SDS011;11179;52.106;21.024;2024-02-16T01:12:34;21.20;;;9.60;;
22030;SDS011;11179;52.106;21.024;2024-02-16T01:14:59;23.10;;;9.87;;
22030;SDS011;11179;52.106;21.024;2024-02-16T01:17:25;21.17;;;9.67;;
22030;SDS011;11179;52.106;21.024;2024-02-16T01:19:50;26.93;;;10.07;;
22030;SDS011;11179;52.106;21.024;2024-02-16T01:22:15;20.83;;;9.80;;
22030;SDS011;11179;52.106;21.024;2024-02-16T01:24:41;19.83;;;9.93;;
22030;SDS011;11179;52.106;21.024;2024-02-16T01:27:06;18.20;;;9.07;;
22030;SDS011;11179;52.106;21.024;2024-02-16T01:29:32;22.33;;;9.90;;
22030;SDS011;11179;52.106;21.024;2024-02-16T01:31:57;23.77;;;10.53;;
22030;SDS011;11179;52.106;21.024;2024-02-16T01:34:23;20.87;;;11.00;;
22030;SDS011;11179;52.106;21.024;2024-02-16T01:36:49;26.17;;;10.60;;
22030;SDS011;11179;52.106;21.024;2024-02-16T01:39:14;21.83;;;10.30;;
22030;SDS011;11179;52.106;21.024;2024-02-16T01:41:39;21.40;;;10.50;;
22030;SDS011;11179;52.106;21.024;2024-02-16T01:44:05;25.33;;;11.83;;
22030;SDS011;11179;52.106;21.024;2024-02-16T01:46:30;24.43;;;10.67;;
22030;SDS011;11179;52.106;21.024;2024-02-16T01:48:57;21.33;;;10.00;;
22030;SDS011;11179;52.106;21.024;2024-02-16T01:51:23;25.83;;;10.03;;
22030;SDS011;11179;52.106;21.024;2024-02-16T01:53:50;22.93;;;9.83;;
22030;SDS011;11179;52.106;21.024;2024-02-16T01:56:17;21.50;;;9.80;;
22030;SDS011;11179;52.106;21.024;2024-02-16T01:58:45;23.23;;;10.30;;
22030;SDS011;11179;52.106;21.024;2024-02-16T02:01:11;21.40;;;9.67;;
22030;SDS011;11179;52.106;21.024;2024-02-16T02:03:36;20.43;;;9.70;;
22030;SDS011;11179;52.106;21.024;2024-02-16T02:06:02;22.93;;;9.87;;
22030;SDS011;11179;52.106;21.024;2024-02-16T02:08:28;20.93;;;9.83;;
22030;SDS011;11179;52.106;21.024;2024-02-16T02:10:53;22.03;;;9.43;;
22030;SDS011;11179;52.106;21.024;2024-02-16T02:13:19;16.03;;;9.00;;
22030;SDS011;11179;52.106;21.024;2024-02-16T02:15:45;20.47;;;9.83;;
22030;SDS011;11179;52.106;21.024;2024-02-16T02:18:10;19.20;;;9.20;;
22030;SDS011;11179;52.106;21.024;2024-02-16T02:20:36;21.57;;;9.40;;
22030;SDS011;11179;52.106;21.024;2024-02-16T02:23:01;18.63;;;9.73;;
22030;SDS011;11179;52.106;21.024;2024-02-16T02:25:26;19.30;;;8.27;;
22030;SDS011;11179;52.106;21.024;2024-02-16T02:27:53;16.97;;;8.20;;
22030;SDS011;11179;52.106;21.024;2024-02-16T02:30:19;21.90;;;9.70;;
22030;SDS011;11179;52.106;21.024;2024-02-16T02:32:46;21.33;;;8.70;;
22030;SDS011;11179;52.106;21.024;2024-02-16T02:35:11;22.73;;;9.40;;
22030;SDS011;11179;52.106;21.024;2024-02-16T02:37:39;21.23;;;11.07;;
22030;SDS011;11179;52.106;21.024;2024-02-16T02:40:06;21.57;;;9.50;;
22030;SDS011;11179;52.106;21.024;2024-02-16T02:42:33;20.00;;;8.90;;
22030;SDS011;11179;52.106;21.024;2024-02-16T02:44:58;20.07;;;8.70;;
22030;SDS011;11179;52.106;21.024;2024-02-16T02:47:24;19.73;;;10.00;;
22030;SDS011;11179;52.106;21.024;2024-02-16T02:49:49;19.70;;;9.30;;
22030;SDS011;11179;52.106;21.024;2024-02-16T02:52:14;21.87;;;9.13;;
22030;SDS011;11179;52.106;21.024;2024-02-16T02:54:41;22.20;;;10.07;;
22030;SDS011;11179;52.106;21.024;2024-02-16T02:57:06;18.23;;;8.37;;
22030;SDS011;11179;52.106;21.024;2024-02-16T02:59:32;20.43;;;8.30;;
22030;SDS011;11179;52.106;21.024;2024-02-16T03:01:57;21.43;;;9.53;;
22030;SDS011;11179;52.106;21.024;2024-02-16T03:04:23;19.30;;;10.10;;
22030;SDS011;11179;52.106;21.024;2024-02-16T03:06:50;21.43;;;8.90;;
22030;SDS011;11179;52.106;21.024;2024-02-16T03:09:16;21.37;;;9.60;;
22030;SDS011;11179;52.106;21.024;2024-02-16T03:11:42;18.97;;;8.07;;
22030;SDS011;11179;52.106;21.024;2024-02-16T03:14:07;19.63;;;8.77;;
22030;SDS011;11179;52.106;21.024;2024-02-16T03:16:33;19.13;;;8.37;;
22030;SDS011;11179;52.106;21.024;2024-02-16T03:18:58;16.17;;;8.00;;
22030;SDS011;11179;52.106;21.024;2024-02-16T03:21:24;17.17;;;8.33;;
22030;SDS011;11179;52.106;21.024;2024-02-16T03:23:50;31.23;;;9.20;;
22030;SDS011;11179;52.106;21.024;2024-02-16T03:26:16;19.23;;;8.30;;
22030;SDS011;11179;52.106;21.024;2024-02-16T03:28:45;19.90;;;8.83;;
22030;SDS011;11179;52.106;21.024;2024-02-16T03:31:20;21.00;;;9.13;;
22030;SDS011;11179;52.106;21.024;2024-02-16T03:33:47;25.00;;;9.10;;
22030;SDS011;11179;52.106;21.024;2024-02-16T03:36:13;20.73;;;8.43;;
22030;SDS011;11179;52.106;21.024;2024-02-16T03:38:47;18.27;;;8.07;;
22030;SDS011;11179;52.106;21.024;2024-02-16T03:41:18;17.50;;;8.33;;
22030;SDS011;11179;52.106;21.024;2024-02-16T03:43:45;17.60;;;9.20;;
22030;SDS011;11179;52.106;21.024;2024-02-16T03:46:10;18.87;;;8.07;;
22030;SDS011;11179;52.106;21.024;2024-02-16T03:48:35;18.33;;;8.50;;
22030;SDS011;11179;52.106;21.024;2024-02-16T03:51:01;27.47;;;9.63;;
22030;SDS011;11179;52.106;21.024;2024-02-16T03:53:28;18.80;;;9.43;;
22030;SDS011;11179;52.106;21.024;2024-02-16T03:55:54;19.07;;;9.23;;
22030;SDS011;11179;52.106;21.024;2024-02-16T03:58:19;23.20;;;9.87;;
22030;SDS011;11179;52.106;21.024;2024-02-16T04:00:44;23.30;;;9.87;;
22030;SDS011;11179;52.106;21.024;2024-02-16T04:03:10;18.63;;;8.40;;
22030;SDS011;11179;52.106;21.024;2024-02-16T04:05:38;17.73;;;8.77;;
22030;SDS011;11179;52.106;21.024;2024-02-16T04:08:03;18.30;;;9.43;;
22030;SDS011;11179;52.106;21.024;2024-02-16T04:10:29;22.03;;;9.83;;
22030;SDS011;11179;52.106;21.024;2024-02-16T04:12:55;20.23;;;8.80;;
22030;SDS011;11179;52.106;21.024;2024-02-16T04:15:20;21.90;;;10.10;;
22030;SDS011;11179;52.106;21.024;2024-02-16T04:17:46;22.10;;;9.73;;
22030;SDS011;11179;52.106;21.024;2024-02-16T04:20:11;18.23;;;9.67;;
22030;SDS011;11179;52.106;21.024;2024-02-16T04:22:36;17.30;;;9.23;;
22030;SDS011;11179;52.106;21.024;2024-02-16T04:25:03;19.03;;;8.73;;
22030;SDS011;11179;52.106;21.024;2024-02-16T04:27:31;21.63;;;9.77;;
22030;SDS011;11179;52.106;21.024;2024-02-16T04:29:57;26.03;;;10.03;;
22030;SDS011;11179;52.106;21.024;2024-02-16T04:32:22;23.17;;;10.60;;
22030;SDS011;11179;52.106;21.024;2024-02-16T04:34:50;20.03;;;9.10;;
22030;SDS011;11179;52.106;21.024;2024-02-16T04:37:17;19.50;;;8.53;;
22030;SDS011;11179;52.106;21.024;2024-02-16T04:39:44;23.37;;;9.93;;
22030;SDS011;11179;52.106;21.024;2024-02-16T04:42:09;21.30;;;9.77;;
22030;SDS011;11179;52.106;21.024;2024-02-16T04:44:38;18.93;;;9.50;;
22030;SDS011;11179;52.106;21.024;2024-02-16T04:47:04;19.93;;;9.53;;
22030;SDS011;11179;52.106;21.024;2024-02-16T04:49:30;21.90;;;9.77;;
22030;SDS011;11179;52.106;21.024;2024-02-16T04:51:55;21.63;;;9.77;;
22030;SDS011;11179;52.106;21.024;2024-02-16T04:54:21;21.70;;;9.47;;
22030;SDS011;11179;52.106;21.024;2024-02-16T04:56:46;23.07;;;8.87;;
22030;SDS011;11179;52.106;21.024;2024-02-16T04:59:12;22.17;;;10.30;;
22030;SDS011;11179;52.106;21.024;2024-02-16T05:01:37;28.30;;;11.53;;
22030;SDS011;11179;52.106;21.024;2024-02-16T05:04:03;26.07;;;10.10;;
22030;SDS011;11179;52.106;21.024;2024-02-16T05:06:28;25.03;;;10.97;;
22030;SDS011;11179;52.106;21.024;2024-02-16T05:08:55;20.80;;;9.97;;
22030;SDS011;11179;52.106;21.024;2024-02-16T05:11:22;20.60;;;9.50;;
22030;SDS011;11179;52.106;21.024;2024-02-16T05:13:49;26.57;;;10.03;;
22030;SDS011;11179;52.106;21.024;2024-02-16T05:16:15;26.90;;;10.63;;
22030;SDS011;11179;52.106;21.024;2024-02-16T05:18:41;27.30;;;12.00;;
22030;SDS011;11179;52.106;21.024;2024-02-16T05:21:07;20.33;;;10.00;;
22030;SDS011;11179;52.106;21.024;2024-02-16T05:23:33;21.43;;;9.90;;
22030;SDS011;11179;52.106;21.024;2024-02-16T05:25:58;19.67;;;10.47;;
22030;SDS011;11179;52.106;21.024;2024-02-16T05:28:23;21.03;;;9.60;;
22030;SDS011;11179;52.106;21.024;2024-02-16T05:30:49;21.77;;;10.10;;
22030;SDS011;11179;52.106;21.024;2024-02-16T05:33:14;19.43;;;9.63;;
22030;SDS011;11179;52.106;21.024;2024-02-16T05:35:40;25.33;;;10.80;;
22030;SDS011;11179;52.106;21.024;2024-02-16T05:38:08;22.23;;;9.80;;
22030;SDS011;11179;52.106;21.024;2024-02-16T05:40:45;22.40;;;8.63;;
22030;SDS011;11179;52.106;21.024;2024-02-16T05:43:19;25.40;;;9.90;;
22030;SDS011;11179;52.106;21.024;2024-02-16T05:45:45;22.87;;;10.40;;
22030;SDS011;11179;52.106;21.024;2024-02-16T05:48:11;21.53;;;9.83;;
22030;SDS011;11179;52.106;21.024;2024-02-16T05:50:37;22.50;;;10.47;;
22030;SDS011;11179;52.106;21.024;2024-02-16T05:53:03;22.17;;;10.07;;
22030;SDS011;11179;52.106;21.024;2024-02-16T05:55:28;23.57;;;9.97;;
22030;SDS011;11179;52.106;21.024;2024-02-16T05:57:54;30.80;;;10.60;;
22030;SDS011;11179;52.106;21.024;2024-02-16T06:00:20;33.33;;;11.17;;
22030;SDS011;11179;52.106;21.024;2024-02-16T06:02:46;22.07;;;9.53;;
22030;SDS011;11179;52.106;21.024;2024-02-16T06:05:12;26.60;;;11.00;;
22030;SDS011;11179;52.106;21.024;2024-02-16T06:07:37;20.50;;;10.93;;
22030;SDS011;11179;52.106;21.024;2024-02-16T06:10:03;26.10;;;10.63;;
22030;SDS011;11179;52.106;21.024;2024-02-16T06:12:32;23.67;;;10.50;;
22030;SDS011;11179;52.106;21.024;2024-02-16T06:14:57;29.17;;;11.67;;
22030;SDS011;11179;52.106;21.024;2024-02-16T06:17:23;28.83;;;12.50;;
22030;SDS011;11179;52.106;21.024;2024-02-16T06:19:49;24.50;;;10.93;;
22030;SDS011;11179;52.106;21.024;2024-02-16T06:22:14;21.60;;;10.73;;
22030;SDS011;11179;52.106;21.024;2024-02-16T06:24:40;22.23;;;11.20;;
22030;SDS011;11179;52.106;21.024;2024-02-16T06:27:05;20.90;;;10.10;;
22030;SDS011;11179;52.106;21.024;2024-02-16T06:29:33;28.40;;;12.53;;
22030;SDS011;11179;52.106;21.024;2024-02-16T06:31:58;23.10;;;10.87;;
22030;SDS011;11179;52.106;21.024;2024-02-16T06:34:24;24.90;;;12.13;;
22030;SDS011;11179;52.106;21.024;2024-02-16T06:36:49;30.83;;;14.00;;
22030;SDS011;11179;52.106;21.024;2024-02-16T06:39:15;28.73;;;11.30;;
22030;SDS011;11179;52.106;21.024;2024-02-16T06:41:45;27.90;;;12.03;;
22030;SDS011;11179;52.106;21.024;2024-02-16T06:44:14;25.23;;;12.03;;
22030;SDS011;11179;52.106;21.024;2024-02-16T06:46:40;23.00;;;11.43;;
22030;SDS011;11179;52.106;21.024;2024-02-16T06:49:06;28.10;;;11.87;;
22030;SDS011;11179;52.106;21.024;2024-02-16T06:51:32;28.93;;;11.77;;
22030;SDS011;11179;52.106;21.024;2024-02-16T06:53:57;24.30;;;11.70;;
22030;SDS011;11179;52.106;21.024;2024-02-16T06:56:23;25.43;;;11.77;;
22030;SDS011;11179;52.106;21.024;2024-02-16T06:58:49;23.00;;;11.60;;
22030;SDS011;11179;52.106;21.024;2024-02-16T07:01:14;27.43;;;12.20;;
22030;SDS011;11179;52.106;21.024;2024-02-16T07:03:41;26.40;;;12.43;;
22030;SDS011;11179;52.106;21.024;2024-02-16T07:06:07;25.33;;;11.97;;
22030;SDS011;11179;52.106;21.024;2024-02-16T07:08:35;21.67;;;10.53;;
22030;SDS011;11179;52.106;21.024;2024-02-16T07:11:02;35.20;;;13.27;;
22030;SDS011;11179;52.106;21.024;2024-02-16T07:13:28;22.33;;;11.80;;
22030;SDS011;11179;52.106;21.024;2024-02-16T07:15:54;40.30;;;13.80;;
22030;SDS011;11179;52.106;21.024;2024-02-16T07:18:19;29.50;;;13.60;;
22030;SDS011;11179;52.106;21.024;2024-02-16T07:20:44;32.27;;;12.63;;
22030;SDS011;11179;52.106;21.024;2024-02-16T07:23:10;30.97;;;12.17;;
22030;SDS011;11179;52.106;21.024;2024-02-16T07:25:35;27.97;;;12.17;;
22030;SDS011;11179;52.106;21.024;2024-02-16T07:28:01;27.03;;;11.80;;
22030;SDS011;11179;52.106;21.024;2024-02-16T07:30:26;23.03;;;10.73;;
22030;SDS011;11179;52.106;21.024;2024-02-16T07:32:51;30.93;;;11.37;;
22030;SDS011;11179;52.106;21.024;2024-02-16T07:35:17;28.97;;;11.80;;
22030;SDS011;11179;52.106;21.024;2024-02-16T07:37:43;30.40;;;11.13;;
22030;SDS011;11179;52.106;21.024;2024-02-16T07:40:09;24.67;;;11.33;;
22030;SDS011;11179;52.106;21.024;2024-02-16T07:42:38;26.60;;;11.33;;
22030;SDS011;11179;52.106;21.024;2024-02-16T07:45:05;27.63;;;10.60;;
22030;SDS011;11179;52.106;21.024;2024-02-16T07:47:31;27.97;;;11.80;;
22030;SDS011;11179;52.106;21.024;2024-02-16T07:49:57;26.40;;;11.20;;
22030;SDS011;11179;52.106;21.024;2024-02-16T07:52:22;25.80;;;10.73;;
22030;SDS011;11179;52.106;21.024;2024-02-16T07:54:48;29.77;;;10.83;;
22030;SDS011;11179;52.106;21.024;2024-02-16T07:57:13;31.57;;;13.13;;
22030;SDS011;11179;52.106;21.024;2024-02-16T07:59:40;24.17;;;11.10;;
22030;SDS011;11179;52.106;21.024;2024-02-16T08:02:05;29.03;;;11.70;;
22030;SDS011;11179;52.106;21.024;2024-02-16T08:04:32;25.10;;;11.30;;
22030;SDS011;11179;52.106;21.024;2024-02-16T08:06:57;22.13;;;12.13;;
22030;SDS011;11179;52.106;21.024;2024-02-16T08:09:23;31.53;;;11.47;;
22030;SDS011;11179;52.106;21.024;2024-02-16T08:11:48;25.70;;;11.03;;
22030;SDS011;11179;52.106;21.024;2024-02-16T08:14:13;25.20;;;11.93;;
22030;SDS011;11179;52.106;21.024;2024-02-16T08:16:39;32.77;;;12.97;;
22030;SDS011;11179;52.106;21.024;2024-02-16T08:19:04;22.20;;;10.50;;
22030;SDS011;11179;52.106;21.024;2024-02-16T08:21:30;28.57;;;11.90;;
22030;SDS011;11179;52.106;21.024;2024-02-16T08:23:55;33.83;;;12.67;;
22030;SDS011;11179;52.106;21.024;2024-02-16T08:26:20;22.50;;;10.60;;
22030;SDS011;11179;52.106;21.024;2024-02-16T08:28:46;23.87;;;11.67;;
22030;SDS011;11179;52.106;21.024;2024-02-16T08:31:14;27.60;;;11.17;;
22030;SDS011;11179;52.106;21.024;2024-02-16T08:33:42;24.23;;;11.00;;
22030;SDS011;11179;52.106;21.024;2024-02-16T08:36:08;26.03;;;11.00;;
22030;SDS011;11179;52.106;21.024;2024-02-16T08:38:33;24.77;;;12.23;;
22030;SDS011;11179;52.106;21.024;2024-02-16T08:41:00;32.30;;;11.60;;
22030;SDS011;11179;52.106;21.024;2024-02-16T08:43:25;23.53;;;11.83;;
22030;SDS011;11179;52.106;21.024;2024-02-16T08:45:51;24.83;;;10.97;;
22030;SDS011;11179;52.106;21.024;2024-02-16T08:48:16;24.07;;;11.47;;
22030;SDS011;11179;52.106;21.024;2024-02-16T08:50:41;23.07;;;11.30;;
22030;SDS011;11179;52.106;21.024;2024-02-16T08:53:07;27.57;;;11.40;;
22030;SDS011;11179;52.106;21.024;2024-02-16T08:55:35;27.37;;;12.50;;
22030;SDS011;11179;52.106;21.024;2024-02-16T08:58:00;27.37;;;11.63;;
22030;SDS011;11179;52.106;21.024;2024-02-16T09:00:25;23.43;;;10.17;;
22030;SDS011;11179;52.106;21.024;2024-02-16T09:02:52;19.27;;;10.00;;
22030;SDS011;11179;52.106;21.024;2024-02-16T09:05:18;24.93;;;12.30;;
22030;SDS011;11179;52.106;21.024;2024-02-16T09:07:44;24.77;;;10.97;;
22030;SDS011;11179;52.106;21.024;2024-02-16T09:10:09;24.90;;;11.20;;
22030;SDS011;11179;52.106;21.024;2024-02-16T09:12:35;23.13;;;10.60;;
22030;SDS011;11179;52.106;21.024;2024-02-16T09:15:00;25.77;;;11.10;;
22030;SDS011;11179;52.106;21.024;2024-02-16T09:17:26;29.13;;;10.80;;
22030;SDS011;11179;52.106;21.024;2024-02-16T09:19:51;21.27;;;10.20;;
22030;SDS011;11179;52.106;21.024;2024-02-16T09:22:17;31.43;;;11.20;;
22030;SDS011;11179;52.106;21.024;2024-02-16T09:24:42;32.50;;;12.13;;
22030;SDS011;11179;52.106;21.024;2024-02-16T09:27:11;19.10;;;10.20;;
22030;SDS011;11179;52.106;21.024;2024-02-16T09:29:37;22.97;;;10.80;;
22030;SDS011;11179;52.106;21.024;2024-02-16T09:32:03;22.37;;;10.90;;
22030;SDS011;11179;52.106;21.024;2024-02-16T09:34:29;25.00;;;10.27;;
22030;SDS011;11179;52.106;21.024;2024-02-16T09:36:54;24.43;;;11.40;;
22030;SDS011;11179;52.106;21.024;2024-02-16T09:39:20;34.30;;;12.07;;
22030;SDS011;11179;52.106;21.024;2024-02-16T09:41:47;20.10;;;9.57;;
22030;SDS011;11179;52.106;21.024;2024-02-16T09:44:16;20.33;;;9.87;;
22030;SDS011;11179;52.106;21.024;2024-02-16T09:46:41;26.17;;;10.23;;
22030;SDS011;11179;52.106;21.024;2024-02-16T09:49:07;22.93;;;10.53;;
22030;SDS011;11179;52.106;21.024;2024-02-16T09:51:35;26.23;;;11.90;;
22030;SDS011;11179;52.106;21.024;2024-02-16T09:54:02;21.20;;;9.87;;
22030;SDS011;11179;52.106;21.024;2024-02-16T09:56:28;22.80;;;9.53;;
22030;SDS011;11179;52.106;21.024;2024-02-16T09:58:53;22.03;;;10.27;;
22030;SDS011;11179;52.106;21.024;2024-02-16T10:01:20;25.23;;;10.50;;
22030;SDS011;11179;52.106;21.024;2024-02-16T10:03:46;31.50;;;11.43;;
22030;SDS011;11179;52.106;21.024;2024-02-16T10:06:14;22.97;;;10.40;;
22030;SDS011;11179;52.106;21.024;2024-02-16T10:08:53;30.80;;;10.97;;
22030;SDS011;11179;52.106;21.024;2024-02-16T10:11:23;26.20;;;10.63;;
22030;SDS011;11179;52.106;21.024;2024-02-16T10:13:56;27.43;;;11.33;;
22030;SDS011;11179;52.106;21.024;2024-02-16T10:16:28;25.13;;;9.20;;
22030;SDS011;11179;52.106;21.024;2024-02-16T10:18:54;30.20;;;11.33;;
22030;SDS011;11179;52.106;21.024;2024-02-16T10:21:28;30.43;;;11.77;;
22030;SDS011;11179;52.106;21.024;2024-02-16T10:24:00;30.90;;;10.80;;
22030;SDS011;11179;52.106;21.024;2024-02-16T10:26:30;25.27;;;11.27;;
22030;SDS011;11179;52.106;21.024;2024-02-16T10:28:56;26.13;;;10.00;;
22030;SDS011;11179;52.106;21.024;2024-02-16T10:31:23;24.57;;;9.50;;
22030;SDS011;11179;52.106;21.024;2024-02-16T10:34:00;21.50;;;9.73;;
22030;SDS011;11179;52.106;21.024;2024-02-16T10:36:30;31.13;;;11.10;;
22030;SDS011;11179;52.106;21.024;2024-02-16T10:38:56;24.97;;;11.57;;
22030;SDS011;11179;52.106;21.024;2024-02-16T10:41:24;25.33;;;11.50;;
22030;SDS011;11179;52.106;21.024;2024-02-16T10:43:53;26.77;;;10.80;;
22030;SDS011;11179;52.106;21.024;2024-02-16T10:46:19;28.10;;;10.93;;
22030;SDS011;11179;52.106;21.024;2024-02-16T10:48:45;26.97;;;11.50;;
22030;SDS011;11179;52.106;21.024;2024-02-16T10:51:12;19.60;;;10.97;;
22030;SDS011;11179;52.106;21.024;2024-02-16T10:53:40;25.33;;;12.60;;
22030;SDS011;11179;52.106;21.024;2024-02-16T10:56:07;24.63;;;10.97;;
22030;SDS011;11179;52.106;21.024;2024-02-16T10:58:32;20.70;;;9.90;;
22030;SDS011;11179;52.106;21.024;2024-02-16T11:01:07;26.23;;;11.50;;
22030;SDS011;11179;52.106;21.024;2024-02-16T11:03:33;25.33;;;11.30;;
22030;SDS011;11179;52.106;21.024;2024-02-16T11:06:11;22.10;;;10.83;;
22030;SDS011;11179;52.106;21.024;2024-02-16T11:08:39;21.73;;;10.40;;
22030;SDS011;11179;52.106;21.024;2024-02-16T11:11:05;29.17;;;12.50;;
22030;SDS011;11179;52.106;21.024;2024-02-16T11:13:34;26.50;;;11.20;;
22030;SDS011;11179;52.106;21.024;2024-02-16T11:16:03;25.70;;;11.03;;
22030;SDS011;11179;52.106;21.024;2024-02-16T11:18:32;28.77;;;10.40;;
22030;SDS011;11179;52.106;21.024;2024-02-16T11:21:03;25.43;;;12.30;;
22030;SDS011;11179;52.106;21.024;2024-02-16T11:23:31;24.63;;;11.30;;
22030;SDS011;11179;52.106;21.024;2024-02-16T11:25:59;26.03;;;12.23;;
22030;SDS011;11179;52.106;21.024;2024-02-16T11:28:27;25.40;;;12.40;;
22030;SDS011;11179;52.106;21.024;2024-02-16T11:30:53;32.90;;;11.90;;
22030;SDS011;11179;52.106;21.024;2024-02-16T11:33:18;25.77;;;11.50;;
22030;SDS011;11179;52.106;21.024;2024-02-16T11:35:52;37.27;;;13.20;;
22030;SDS011;11179;52.106;21.024;2024-02-16T11:38:18;23.53;;;11.00;;
22030;SDS011;11179;52.106;21.024;2024-02-16T11:40:52;22.57;;;11.17;;
22030;SDS011;11179;52.106;21.024;2024-02-16T11:43:22;24.07;;;12.40;;
22030;SDS011;11179;52.106;21.024;2024-02-16T11:45:48;24.63;;;13.10;;
22030;SDS011;11179;52.106;21.024;2024-02-16T11:48:18;24.37;;;10.80;;
22030;SDS011;11179;52.106;21.024;2024-02-16T11:50:48;25.77;;;11.60;;
22030;SDS011;11179;52.106;21.024;2024-02-16T11:53:18;26.97;;;11.40;;
22030;SDS011;11179;52.106;21.024;2024-02-16T11:55:47;27.87;;;12.13;;
22030;SDS011;11179;52.106;21.024;2024-02-16T11:58:17;21.97;;;10.90;;
22030;SDS011;11179;52.106;21.024;2024-02-16T12:00:46;23.87;;;11.20;;
22030;SDS011;11179;52.106;21.024;2024-02-16T12:03:18;22.47;;;11.73;;
22030;SDS011;11179;52.106;21.024;2024-02-16T12:05:57;24.90;;;10.93;;
22030;SDS011;11179;52.106;21.024;2024-02-16T12:08:24;22.77;;;10.57;;
22030;SDS011;11179;52.106;21.024;2024-02-16T12:10:56;26.27;;;11.10;;
22030;SDS011;11179;52.106;21.024;2024-02-16T12:13:22;23.23;;;10.30;;
22030;SDS011;11179;52.106;21.024;2024-02-16T12:15:47;26.80;;;10.30;;
22030;SDS011;11179;52.106;21.024;2024-02-16T12:18:20;21.23;;;9.70;;
22030;SDS011;11179;52.106;21.024;2024-02-16T12:20:56;25.17;;;10.93;;
22030;SDS011;11179;52.106;21.024;2024-02-16T12:23:29;30.77;;;9.90;;
22030;SDS011;11179;52.106;21.024;2024-02-16T12:25:58;20.70;;;10.63;;
22030;SDS011;11179;52.106;21.024;2024-02-16T12:28:24;25.67;;;11.50;;
22030;SDS011;11179;52.106;21.024;2024-02-16T12:30:52;26.60;;;10.27;;
22030;SDS011;11179;52.106;21.024;2024-02-16T12:33:17;18.50;;;9.70;;
22030;SDS011;11179;52.106;21.024;2024-02-16T12:35:43;22.10;;;10.60;;
22030;SDS011;11179;52.106;21.024;2024-02-16T12:38:09;19.97;;;9.20;;
22030;SDS011;11179;52.106;21.024;2024-02-16T12:40:36;20.40;;;10.30;;
22030;SDS011;11179;52.106;21.024;2024-02-16T12:43:01;25.57;;;10.53;;
22030;SDS011;11179;52.106;21.024;2024-02-16T12:45:26;34.60;;;10.47;;
22030;SDS011;11179;52.106;21.024;2024-02-16T12:47:52;23.67;;;11.10;;
22030;SDS011;11179;52.106;21.024;2024-02-16T12:50:18;22.17;;;9.53;;
22030;SDS011;11179;52.106;21.024;2024-02-16T12:52:43;23.00;;;10.80;;
22030;SDS011;11179;52.106;21.024;2024-02-16T12:55:09;21.70;;;9.70;;
22030;SDS011;11179;52.106;21.024;2024-02-16T12:57:37;23.90;;;9.40;;
22030;SDS011;11179;52.106;21.024;2024-02-16T13:00:03;30.97;;;11.20;;
22030;SDS011;11179;52.106;21.024;2024-02-16T13:02:30;24.90;;;10.90;;
22030;SDS011;11179;52.106;21.024;2024-02-16T13:04:56;23.30;;;10.80;;
22030;SDS011;11179;52.106;21.024;2024-02-16T13:07:21;20.53;;;10.07;;
22030;SDS011;11179;52.106;21.024;2024-02-16T13:09:47;22.97;;;10.07;;
22030;SDS011;11179;52.106;21.024;2024-02-16T13:12:15;23.67;;;9.53;;
22030;SDS011;11179;52.106;21.024;2024-02-16T13:14:41;22.27;;;10.33;;
22030;SDS011;11179;52.106;21.024;2024-02-16T13:17:06;19.80;;;9.87;;
22030;SDS011;11179;52.106;21.024;2024-02-16T13:19:32;23.83;;;10.47;;
22030;SDS011;11179;52.106;21.024;2024-02-16T13:22:00;20.53;;;10.50;;
22030;SDS011;11179;52.106;21.024;2024-02-16T13:24:25;23.60;;;9.97;;
22030;SDS011;11179;52.106;21.024;2024-02-16T13:26:51;19.90;;;9.57;;
22030;SDS011;11179;52.106;21.024;2024-02-16T13:29:16;24.60;;;10.43;;
22030;SDS011;11179;52.106;21.024;2024-02-16T13:31:41;21.07;;;9.77;;
22030;SDS011;11179;52.106;21.024;2024-02-16T13:34:07;23.90;;;9.00;;
22030;SDS011;11179;52.106;21.024;2024-02-16T13:36:33;18.17;;;9.23;;
22030;SDS011;11179;52.106;21.024;2024-02-16T13:38:58;18.60;;;9.07;;
22030;SDS011;11179;52.106;21.024;2024-02-16T13:41:24;27.50;;;8.87;;
22030;SDS011;11179;52.106;21.024;2024-02-16T13:43:50;18.40;;;9.50;;
22030;SDS011;11179;52.106;21.024;2024-02-16T13:46:16;23.50;;;8.70;;
22030;SDS011;11179;52.106;21.024;2024-02-16T13:48:42;17.97;;;8.73;;
22030;SDS011;11179;52.106;21.024;2024-02-16T13:51:08;18.90;;;8.63;;
22030;SDS011;11179;52.106;21.024;2024-02-16T13:53:33;18.33;;;10.50;;
22030;SDS011;11179;52.106;21.024;2024-02-16T13:55:58;18.33;;;8.80;;
22030;SDS011;11179;52.106;21.024;2024-02-16T13:58:28;16.37;;;8.93;;
22030;SDS011;11179;52.106;21.024;2024-02-16T14:00:55;22.33;;;8.60;;
22030;SDS011;11179;52.106;21.024;2024-02-16T14:03:20;23.40;;;9.07;;
22030;SDS011;11179;52.106;21.024;2024-02-16T14:05:45;19.60;;;10.10;;
22030;SDS011;11179;52.106;21.024;2024-02-16T14:08:12;18.53;;;8.60;;
22030;SDS011;11179;52.106;21.024;2024-02-16T14:10:37;21.33;;;8.67;;